^^
Station Historical Data
 
Daily Summary for June 24, 2019 Units:  Metric    English   Both
« Previous Day
Next Day »
Daily Weekly Monthly Yearly Custom
  Current: High: Low: Average:
Temperature: 21.7 °C 23.0 °C 11.1 °C 16.5 °C
Dew Point: 5.2 °C 9.8 °C 4.7 °C 7.7 °C
Humidity: 34% 82% 32% 59%
Wind Speed: 9.3km/h 19.0km/h 0.0km/h 4.8km/h
Wind Gust: 9.0km/h 12.6km/h - -
WindWest - - WSW
Pressure: 1025.9 hPa 1025.9 hPa 1020.9 hPa -
Precipitation: 0.0 mm      
Historical Graphs
 
 
Tabular Data for June 24, 2019
Time Temperature Dew Point Pressure Wind Wind Speed Wind Gust Humidity Rainfall Rate (Hourly) solar Conditions
00:04 17.0 °C 7.3 °C 1021.9 hPa WNW 9.3 km/h 5.8 km/h 53% 0.0 mm WeatherDisplay:10.37 W/m2 CLR
00:09 16.9 °C 7.5 °C 1020.9 hPa West 5.8 km/h 4.2 km/h 54% 0.0 mm WeatherDisplay:10.37 W/m2 CLR
00:14 16.8 °C 7.7 °C 1020.9 hPa West 7.4 km/h 5.3 km/h 55% 0.0 mm WeatherDisplay:10.37 W/m2 CLR
00:19 16.6 °C 7.8 °C 1020.9 hPa West 5.6 km/h 3.2 km/h 56% 0.0 mm WeatherDisplay:10.37 W/m2 CLR
00:24 16.4 °C 7.3 °C 1020.9 hPa WNW 4.7 km/h   55% 0.0 mm WeatherDisplay:10.37 W/m2 CLR
00:29 16.3 °C 6.9 °C 1020.9 hPa WNW 3.9 km/h 2.6 km/h 54% 0.0 mm WeatherDisplay:10.37 W/m2 CLR
00:34 16.3 °C 6.9 °C 1020.9 hPa Calm     54% 0.0 mm WeatherDisplay:10.37 W/m2 CLR
00:39 16.0 °C 6.9 °C 1020.9 hPa East 1.9 km/h   55% 0.0 mm WeatherDisplay:10.37 W/m2 CLR
00:44 15.6 °C 7.1 °C 1020.9 hPa SW 3.7 km/h 2.3 km/h 57% 0.0 mm WeatherDisplay:10.37 W/m2 -RA
00:49 15.3 °C 7.6 °C 1020.9 hPa West 3.7 km/h 2.6 km/h 60% 0.0 mm WeatherDisplay:10.37 W/m2 -RA
00:54 14.8 °C 9.2 °C 1021.9 hPa NE 4.7 km/h 2.6 km/h 69% 0.0 mm WeatherDisplay:10.37 W/m2 -RA
00:59 14.4 °C 9.0 °C 1021.9 hPa North 3.7 km/h 2.6 km/h 70% 0.0 mm WeatherDisplay:10.37 W/m2 -RA
01:04 14.0 °C 8.8 °C 1021.9 hPa ENE 3.7 km/h 1.9 km/h 71% 0.0 mm WeatherDisplay:10.37 W/m2 -RA
01:09 13.7 °C 8.7 °C 1021.9 hPa NW 3.7 km/h 3.5 km/h 72% 0.0 mm WeatherDisplay:10.37 W/m2 -RA
01:14 13.4 °C 8.7 °C 1021.9 hPa North 1.9 km/h 1.4 km/h 73% 0.0 mm WeatherDisplay:10.37 W/m2 OVC
01:19 13.2 °C 8.9 °C 1021.9 hPa ENE 3.7 km/h   75% 0.0 mm WeatherDisplay:10.37 W/m2 OVC
01:24 13.0 °C 9.4 °C 1021.9 hPa ENE 3.7 km/h 3.2 km/h 79% 0.0 mm WeatherDisplay:10.37 W/m2 OVC
01:29 12.8 °C 9.6 °C 1021.9 hPa East 3.7 km/h 2.6 km/h 81% 0.0 mm WeatherDisplay:10.37 W/m2 OVC
01:34 12.8 °C 9.6 °C 1021.9 hPa East 2.6 km/h 2.3 km/h 81% 0.0 mm WeatherDisplay:10.37 W/m2 OVC
01:39 12.8 °C 9.2 °C 1021.9 hPa East 1.9 km/h 1.4 km/h 79% 0.0 mm WeatherDisplay:10.37 W/m2 OVC
01:44 12.8 °C 9.8 °C 1021.9 hPa East 3.7 km/h 2.3 km/h 82% 0.0 mm WeatherDisplay:10.37 W/m2 -RA
01:49 12.8 °C 9.8 °C 1021.9 hPa West 3.7 km/h 2.3 km/h 82% 0.0 mm WeatherDisplay:10.37 W/m2 -RA
01:54 12.7 °C 9.2 °C 1021.9 hPa Calm     79% 0.0 mm WeatherDisplay:10.37 W/m2 -RA
01:59 12.6 °C 9.1 °C 1021.9 hPa Calm     79% 0.0 mm WeatherDisplay:10.37 W/m2 -RA
02:04 12.6 °C 9.1 °C 1021.9 hPa Calm     79% 0.0 mm WeatherDisplay:10.37 W/m2 -RA
02:09 12.5 °C 8.9 °C 1020.9 hPa Calm     79% 0.0 mm WeatherDisplay:10.37 W/m2 -RA
02:14 12.5 °C 8.9 °C 1020.9 hPa Calm     79% 0.0 mm WeatherDisplay:10.37 W/m2 CLR
02:19 12.4 °C 8.8 °C 1020.9 hPa Calm     79% 0.0 mm WeatherDisplay:10.37 W/m2 CLR
02:24 12.4 °C 8.8 °C 1021.9 hPa Calm     79% 0.0 mm WeatherDisplay:10.37 W/m2 CLR
02:29 12.4 °C 8.8 °C 1021.9 hPa Calm     79% 0.0 mm WeatherDisplay:10.37 W/m2 CLR
02:34 12.4 °C 8.8 °C 1021.9 hPa Calm     79% 0.0 mm WeatherDisplay:10.37 W/m2 CLR
02:39 12.5 °C 8.9 °C 1021.9 hPa Calm     79% 0.0 mm WeatherDisplay:10.37 W/m2 CLR
02:44 12.5 °C 9.3 °C 1021.9 hPa Calm     81% 0.0 mm WeatherDisplay:10.37 W/m2 CLR
02:49 12.5 °C 9.3 °C 1021.9 hPa Calm     81% 0.0 mm WeatherDisplay:10.37 W/m2 CLR
02:54 12.5 °C 9.3 °C 1021.9 hPa Calm     81% 0.0 mm WeatherDisplay:10.37 W/m2 CLR
02:59 12.4 °C 9.2 °C 1021.9 hPa Calm     81% 0.0 mm WeatherDisplay:10.37 W/m2 CLR
03:04 12.3 °C 9.3 °C 1021.9 hPa Calm     82% 0.0 mm WeatherDisplay:10.37 W/m2 CLR
03:09 12.2 °C 9.2 °C 1021.9 hPa Calm     82% 0.0 mm WeatherDisplay:10.37 W/m2 CLR
03:14 12.1 °C 9.1 °C 1021.9 hPa Calm     82% 0.0 mm WeatherDisplay:10.37 W/m2 CLR
03:19 12.0 °C 8.8 °C 1021.9 hPa Calm     81% 0.0 mm WeatherDisplay:10.37 W/m2 CLR
03:24 11.9 °C 8.7 °C 1021.9 hPa Calm     81% 0.0 mm WeatherDisplay:10.37 W/m2 CLR
03:29 11.9 °C 8.7 °C 1021.9 hPa Calm     81% 0.0 mm WeatherDisplay:10.37 W/m2 CLR
03:34 11.8 °C 8.7 °C 1021.9 hPa Calm     81% 0.0 mm WeatherDisplay:10.37 W/m2 CLR
03:39 11.7 °C 8.6 °C 1022.9 hPa Calm     81% 0.0 mm WeatherDisplay:10.37 W/m2 CLR
03:44 11.7 °C 8.6 °C 1022.9 hPa Calm     81% 0.0 mm WeatherDisplay:10.37 W/m2 CLR
03:49 11.6 °C 8.1 °C 1022.9 hPa Calm     79% 0.0 mm WeatherDisplay:10.37 W/m2 CLR
03:54 11.6 °C 8.1 °C 1022.9 hPa Calm     79% 0.0 mm WeatherDisplay:10.37 W/m2 CLR
03:59 11.5 °C 8.3 °C 1022.9 hPa Calm     81% 0.0 mm WeatherDisplay:10.37 W/m2 CLR
04:04 11.5 °C 8.0 °C 1022.9 hPa Calm     79% 0.0 mm WeatherDisplay:10.37 W/m2 CLR
04:09 11.4 °C 7.9 °C 1022.9 hPa Calm     79% 0.0 mm WeatherDisplay:10.37 W/m2 CLR
04:14 11.4 °C 7.9 °C 1022.9 hPa Calm     79% 0.0 mm WeatherDisplay:10.37 W/m2 CLR
04:19 11.3 °C 7.8 °C 1022.9 hPa Calm     79% 0.0 mm WeatherDisplay:10.37 W/m2 CLR
04:24 11.3 °C 7.8 °C 1022.9 hPa Calm     79% 0.0 mm WeatherDisplay:10.37 W/m2 CLR
04:29 11.3 °C 7.6 °C 1022.9 hPa Calm     78% 0.0 mm WeatherDisplay:10.37 W/m2 CLR
04:34 11.2 °C 7.5 °C 1022.9 hPa Calm     78% 0.0 mm WeatherDisplay:10.37 W/m2 CLR
04:39 11.2 °C 7.5 °C 1022.9 hPa Calm     78% 0.0 mm WeatherDisplay:10.37 W/m2 CLR
04:44 11.2 °C 7.5 °C 1022.9 hPa West 1.9 km/h   78% 0.0 mm WeatherDisplay:10.37 W/m2 CLR
04:49 11.1 °C 7.4 °C 1022.9 hPa West 2.3 km/h   78% 0.0 mm WeatherDisplay:10.37 W/m2 CLR
04:54 11.1 °C 7.4 °C 1022.9 hPa Calm     78% 0.0 mm WeatherDisplay:10.37 W/m2 CLR
04:59 11.2 °C 7.7 °C 1022.9 hPa West 1.9 km/h   79% 0.0 mm WeatherDisplay:10.37 W/m2 CLR
05:04 11.2 °C 7.7 °C 1022.9 hPa Calm     79% 0.0 mm WeatherDisplay:10.37 W/m2 CLR
05:09 11.2 °C 7.7 °C 1023.9 hPa Calm     79% 0.0 mm WeatherDisplay:10.37 W/m2 CLR
05:14 11.2 °C 7.7 °C 1023.9 hPa Calm     79% 0.0 mm WeatherDisplay:10.37 W/m2 CLR
05:19 11.3 °C 7.8 °C 1023.9 hPa Calm     79% 0.0 mm WeatherDisplay:10.37 W/m2 CLR
05:24 11.3 °C 7.8 °C 1023.9 hPa Calm     79% 0.0 mm WeatherDisplay:10.37 W/m2 CLR
05:29 11.4 °C 7.9 °C 1023.9 hPa Calm     79% 0.0 mm WeatherDisplay:10.37 W/m2 CLR
05:34 11.5 °C 8.0 °C 1023.9 hPa Calm     79% 0.0 mm WeatherDisplay:10.37 W/m2 CLR
05:39 11.6 °C 8.1 °C 1023.9 hPa West 1.9 km/h   79% 0.0 mm WeatherDisplay:10.37 W/m2 CLR
05:44 11.6 °C 8.1 °C 1023.9 hPa Calm     79% 0.0 mm WeatherDisplay:10.37 W/m2 CLR
05:49 11.7 °C 8.2 °C 1023.9 hPa Calm     79% 0.0 mm WeatherDisplay:10.37 W/m2 CLR
05:54 11.8 °C 8.3 °C 1023.9 hPa Calm     79% 0.0 mm WeatherDisplay:10.37 W/m2 CLR
05:59 11.8 °C 8.7 °C 1023.9 hPa Calm     81% 0.0 mm WeatherDisplay:10.37 W/m2 CLR
06:04 11.9 °C 8.7 °C 1023.9 hPa Calm     81% 0.0 mm WeatherDisplay:10.37 W/m2 CLR
06:09 12.0 °C 8.4 °C 1022.9 hPa West 3.7 km/h 3.2 km/h 79% 0.0 mm WeatherDisplay:10.37 W/m2 CLR
06:14 12.1 °C 8.6 °C 1022.9 hPa West 2.6 km/h   79% 0.0 mm WeatherDisplay:10.37 W/m2 CLR
06:19 12.2 °C 8.7 °C 1022.9 hPa North 3.9 km/h 1.9 km/h 79% 0.0 mm WeatherDisplay:10.37 W/m2 CLR
06:24 12.3 °C 8.8 °C 1023.9 hPa NW 3.7 km/h   79% 0.0 mm WeatherDisplay:10.37 W/m2 CLR
06:29 12.4 °C 8.8 °C 1023.9 hPa WNW 3.5 km/h 1.9 km/h 79% 0.0 mm WeatherDisplay:10.37 W/m2 CLR
06:34 12.6 °C 8.9 °C 1023.9 hPa WSW 7.4 km/h 5.3 km/h 78% 0.0 mm WeatherDisplay:10.37 W/m2 CLR
06:39 12.8 °C 9.1 °C 1023.9 hPa West 3.7 km/h 2.6 km/h 78% 0.0 mm WeatherDisplay:10.37 W/m2 CLR
06:44 12.8 °C 8.9 °C 1023.9 hPa WSW 3.7 km/h 2.6 km/h 77% 0.0 mm WeatherDisplay:10.37 W/m2 CLR
06:49 12.9 °C 8.9 °C 1023.9 hPa SSW 3.7 km/h 2.3 km/h 77% 0.0 mm WeatherDisplay:10.37 W/m2 CLR
06:54 13.0 °C 9.1 °C 1023.9 hPa West 3.7 km/h 1.9 km/h 77% 0.0 mm WeatherDisplay:10.37 W/m2 CLR
06:59 13.2 °C 9.1 °C 1023.9 hPa WSW 1.9 km/h   76% 0.0 mm WeatherDisplay:10.37 W/m2 CLR
07:04 13.3 °C 9.2 °C 1023.9 hPa WNW 1.9 km/h 2.6 km/h 76% 0.0 mm WeatherDisplay:10.37 W/m2 CLR
07:09 13.5 °C 9.3 °C 1023.9 hPa SW 1.9 km/h 1.9 km/h 76% 0.0 mm WeatherDisplay:10.37 W/m2 CLR
07:14 13.8 °C 9.4 °C 1023.9 hPa SW 1.9 km/h 1.4 km/h 75% 0.0 mm WeatherDisplay:10.37 W/m2 CLR
07:19 14.0 °C 9.4 °C 1023.9 hPa SW 3.7 km/h 2.3 km/h 74% 0.0 mm WeatherDisplay:10.37 W/m2 CLR
07:24 14.2 °C 9.6 °C 1023.9 hPa West 4.2 km/h   74% 0.0 mm WeatherDisplay:10.37 W/m2 CLR
07:29 14.3 °C 9.5 °C 1023.9 hPa SW 1.9 km/h 2.3 km/h 73% 0.0 mm WeatherDisplay:10.37 W/m2 CLR
07:34 14.4 °C 9.2 °C 1023.9 hPa West 3.7 km/h 3.2 km/h 71% 0.0 mm WeatherDisplay:10.37 W/m2 CLR
07:39 14.6 °C 9.4 °C 1023.9 hPa SW 2.3 km/h 2.3 km/h 71% 0.0 mm WeatherDisplay:10.37 W/m2 CLR
07:44 14.7 °C 9.1 °C 1023.9 hPa West 3.7 km/h 2.3 km/h 69% 0.0 mm WeatherDisplay:10.37 W/m2 CLR
07:49 14.9 °C 9.5 °C 1023.9 hPa West 4.7 km/h   70% 0.0 mm WeatherDisplay:10.37 W/m2 CLR
07:54 15.1 °C 9.0 °C 1023.9 hPa WNW 3.7 km/h   67% 0.0 mm WeatherDisplay:10.37 W/m2 CLR
07:59 15.2 °C 9.1 °C 1023.9 hPa West 1.9 km/h   67% 0.0 mm WeatherDisplay:10.37 W/m2 CLR
08:04 15.3 °C 9.0 °C 1023.9 hPa West 3.7 km/h   66% 0.0 mm WeatherDisplay:10.37 W/m2 CLR
08:09 15.6 °C 8.8 °C 1023.9 hPa West 5.6 km/h 3.9 km/h 64% 0.0 mm WeatherDisplay:10.37 W/m2 CLR
08:14 15.8 °C 8.8 °C 1023.9 hPa North 3.7 km/h 3.2 km/h 63% 0.0 mm WeatherDisplay:10.37 W/m2 CLR
08:19 15.9 °C 8.8 °C 1023.9 hPa SW 2.3 km/h   63% 0.0 mm WeatherDisplay:10.37 W/m2 CLR
08:24 16.1 °C 8.6 °C 1024.9 hPa WSW 3.5 km/h 3.9 km/h 61% 0.0 mm WeatherDisplay:10.37 W/m2 CLR
08:29 16.2 °C 8.4 °C 1024.9 hPa West 5.6 km/h 2.6 km/h 60% 0.0 mm WeatherDisplay:10.37 W/m2 CLR
08:34 16.3 °C 8.3 °C 1024.9 hPa West 4.7 km/h 3.2 km/h 59% 0.0 mm WeatherDisplay:10.37 W/m2 CLR
08:39 16.5 °C 8.4 °C 1024.9 hPa West 3.9 km/h 4.2 km/h 59% 0.0 mm WeatherDisplay:10.37 W/m2 CLR
08:44 16.7 °C 7.9 °C 1024.9 hPa NW 5.8 km/h 4.2 km/h 56% 0.0 mm WeatherDisplay:10.37 W/m2 CLR
08:49 16.7 °C 7.9 °C 1024.9 hPa SW 5.6 km/h 4.7 km/h 56% 0.0 mm WeatherDisplay:10.37 W/m2 CLR
08:54 16.9 °C 8.1 °C 1024.9 hPa West 5.6 km/h 3.2 km/h 56% 0.0 mm WeatherDisplay:10.37 W/m2 CLR
08:59 17.1 °C 8.0 °C 1024.9 hPa WSW 2.6 km/h 2.6 km/h 55% 0.0 mm WeatherDisplay:10.37 W/m2 CLR
09:04 17.3 °C 8.2 °C 1024.9 hPa SW 3.5 km/h 1.4 km/h 55% 0.0 mm WeatherDisplay:10.37 W/m2 CLR
09:09 17.4 °C 7.7 °C 1024.9 hPa NW 7.4 km/h 5.3 km/h 53% 0.0 mm WeatherDisplay:10.37 W/m2 CLR
09:14 17.5 °C 6.9 °C 1024.9 hPa West 7.4 km/h 5.3 km/h 50% 0.0 mm WeatherDisplay:10.37 W/m2 CLR
09:19 17.9 °C 8.2 °C 1024.9 hPa WSW 5.6 km/h 3.9 km/h 53% 0.0 mm WeatherDisplay:10.37 W/m2 CLR
09:24 18.1 °C 7.8 °C 1024.9 hPa West 7.4 km/h 7.6 km/h 51% 0.0 mm WeatherDisplay:10.37 W/m2 CLR
09:29 18.1 °C 7.8 °C 1024.9 hPa WSW 5.6 km/h 3.9 km/h 51% 0.0 mm WeatherDisplay:10.37 W/m2 CLR
09:34 18.4 °C 8.4 °C 1024.9 hPa WNW 7.4 km/h 5.0 km/h 52% 0.0 mm WeatherDisplay:10.37 W/m2 CLR
09:39 18.6 °C 7.9 °C 1024.9 hPa North 3.7 km/h 1.9 km/h 50% 0.0 mm WeatherDisplay:10.37 W/m2 CLR
09:44 18.9 °C 8.6 °C 1024.9 hPa West 5.6 km/h 3.9 km/h 51% 0.0 mm WeatherDisplay:10.37 W/m2 CLR
09:49 19.1 °C 7.5 °C 1024.9 hPa NW 5.6 km/h 3.2 km/h 47% 0.0 mm WeatherDisplay:10.37 W/m2 CLR
09:54 19.3 °C 7.7 °C 1024.9 hPa West 7.4 km/h 4.2 km/h 47% 0.0 mm WeatherDisplay:10.37 W/m2 CLR
09:59 19.6 °C 8.3 °C 1024.9 hPa East 3.9 km/h 4.2 km/h 48% 0.0 mm WeatherDisplay:10.37 W/m2 CLR
10:04 19.7 °C 8.1 °C 1024.9 hPa NW 3.7 km/h 2.3 km/h 47% 0.0 mm WeatherDisplay:10.37 W/m2 CLR
10:09 19.9 °C 7.6 °C 1024.9 hPa West 5.6 km/h 3.2 km/h 45% 0.0 mm WeatherDisplay:10.37 W/m2 CLR
10:14 20.1 °C 7.4 °C 1024.9 hPa WNW 11.1 km/h 5.0 km/h 44% 0.0 mm WeatherDisplay:10.37 W/m2 CLR
10:19 20.2 °C 8.2 °C 1024.9 hPa West 7.4 km/h 5.8 km/h 46% 0.0 mm WeatherDisplay:10.37 W/m2 CLR
10:24 20.4 °C 8.4 °C 1024.9 hPa WSW 5.6 km/h 3.2 km/h 46% 0.0 mm WeatherDisplay:10.37 W/m2 CLR
10:29 20.4 °C 7.4 °C 1024.9 hPa West 7.9 km/h 7.6 km/h 43% 0.0 mm WeatherDisplay:10.37 W/m2 CLR
10:34 20.5 °C 7.8 °C 1024.9 hPa West 19.0 km/h 6.9 km/h 44% 0.0 mm WeatherDisplay:10.37 W/m2 CLR
10:39 20.3 °C 6.2 °C 1024.9 hPa West 11.1 km/h 8.7 km/h 40% 0.0 mm WeatherDisplay:10.37 W/m2 CLR
10:44 20.2 °C 6.2 °C 1024.9 hPa WNW 5.6 km/h 6.1 km/h 40% 0.0 mm WeatherDisplay:10.37 W/m2 CLR
10:49 20.4 °C 6.7 °C 1024.9 hPa NW 5.6 km/h 3.2 km/h 41% 0.0 mm WeatherDisplay:10.37 W/m2 CLR
10:54 20.6 °C 6.5 °C 1025.9 hPa West 9.3 km/h 3.9 km/h 40% 0.0 mm WeatherDisplay:10.37 W/m2 CLR
10:59 20.9 °C 7.5 °C 1025.9 hPa WNW 7.4 km/h 4.2 km/h 42% 0.0 mm WeatherDisplay:10.37 W/m2 CLR
11:04 20.4 °C 7.1 °C 1025.9 hPa West 9.3 km/h 5.8 km/h 42% 0.0 mm WeatherDisplay:10.37 W/m2 CLR
11:09 20.4 °C 7.4 °C 1025.9 hPa West 9.3 km/h 6.4 km/h 43% 0.0 mm WeatherDisplay:10.37 W/m2 CLR
11:14 20.6 °C 7.2 °C 1025.9 hPa West 9.3 km/h 6.9 km/h 42% 0.0 mm WeatherDisplay:10.37 W/m2 CLR
11:19 20.6 °C 6.9 °C 1025.9 hPa West 7.4 km/h 8.7 km/h 41% 0.0 mm WeatherDisplay:10.37 W/m2 CLR
11:24 20.7 °C 6.9 °C 1025.9 hPa West 9.3 km/h 6.9 km/h 41% 0.0 mm WeatherDisplay:10.37 W/m2 CLR
11:29 20.8 °C 7.4 °C 1025.9 hPa West 9.3 km/h 8.7 km/h 42% 0.0 mm WeatherDisplay:10.37 W/m2 CLR
11:34 20.6 °C 7.2 °C 1025.9 hPa WNW 13.7 km/h 6.9 km/h 42% 0.0 mm WeatherDisplay:10.37 W/m2 CLR
11:39 21.0 °C 7.6 °C 1025.9 hPa WNW 9.3 km/h 6.1 km/h 42% 0.0 mm WeatherDisplay:10.37 W/m2 CLR
11:44 20.8 °C 6.3 °C 1025.9 hPa WSW 3.7 km/h 3.2 km/h 39% 0.0 mm WeatherDisplay:10.37 W/m2 CLR
11:49 21.1 °C 6.9 °C 1025.9 hPa WSW 5.0 km/h 3.9 km/h 40% 0.0 mm WeatherDisplay:10.37 W/m2 CLR
11:54 20.8 °C 5.9 °C 1025.9 hPa NW 11.1 km/h 4.7 km/h 38% 0.0 mm WeatherDisplay:10.37 W/m2 CLR
11:59 20.6 °C 6.2 °C 1025.9 hPa North 6.9 km/h 5.0 km/h 39% 0.0 mm WeatherDisplay:10.37 W/m2 CLR
12:04 20.8 °C 5.6 °C 1025.9 hPa West 6.1 km/h 2.3 km/h 37% 0.0 mm WeatherDisplay:10.37 W/m2 CLR
12:09 20.7 °C 5.5 °C 1025.9 hPa West 3.7 km/h 3.2 km/h 37% 0.0 mm WeatherDisplay:10.37 W/m2 CLR
12:14 20.8 °C 5.6 °C 1025.9 hPa West 6.1 km/h 6.1 km/h 37% 0.0 mm WeatherDisplay:10.37 W/m2 CLR
12:19 20.8 °C 5.9 °C 1025.9 hPa SW 5.6 km/h 5.3 km/h 38% 0.0 mm WeatherDisplay:10.37 W/m2 CLR
12:24 20.8 °C 5.9 °C 1025.9 hPa NW 5.6 km/h 3.9 km/h 38% 0.0 mm WeatherDisplay:10.37 W/m2 CLR
12:29 20.8 °C 5.9 °C 1025.9 hPa WNW 11.1 km/h 5.8 km/h 38% 0.0 mm WeatherDisplay:10.37 W/m2 CLR
12:34 21.2 °C 6.3 °C 1025.9 hPa WNW 9.3 km/h 5.3 km/h 38% 0.0 mm WeatherDisplay:10.37 W/m2 CLR
12:39 21.4 °C 6.1 °C 1024.9 hPa West 6.9 km/h 6.1 km/h 37% 0.0 mm WeatherDisplay:10.37 W/m2 CLR
12:44 21.7 °C 6.4 °C 1024.9 hPa West 11.1 km/h 4.2 km/h 37% 0.0 mm WeatherDisplay:10.37 W/m2 CLR
12:49 22.0 °C 6.2 °C 1024.9 hPa SW 9.3 km/h 8.7 km/h 36% 0.0 mm WeatherDisplay:10.37 W/m2 CLR
12:54 21.4 °C 5.3 °C 1025.9 hPa West 9.3 km/h 7.9 km/h 35% 0.0 mm WeatherDisplay:10.37 W/m2 CLR
12:59 21.7 °C 5.9 °C 1025.9 hPa WNW 7.6 km/h 6.9 km/h 36% 0.0 mm WeatherDisplay:10.37 W/m2 CLR
13:04 21.6 °C 5.9 °C 1025.9 hPa West 9.3 km/h 6.4 km/h 36% 0.0 mm WeatherDisplay:10.37 W/m2 CLR
13:09 21.6 °C 5.5 °C 1024.9 hPa NNW 9.3 km/h 6.1 km/h 35% 0.0 mm WeatherDisplay:10.37 W/m2 CLR
13:14 21.8 °C 5.7 °C 1024.9 hPa West 9.3 km/h 8.7 km/h 35% 0.0 mm WeatherDisplay:10.37 W/m2 CLR
13:19 22.1 °C 6.3 °C 1024.9 hPa NNW 9.3 km/h 4.7 km/h 36% 0.0 mm WeatherDisplay:10.37 W/m2 CLR
13:24 22.1 °C 6.3 °C 1024.9 hPa SW 9.3 km/h 5.3 km/h 36% 0.0 mm WeatherDisplay:10.37 W/m2 CLR
13:29 22.1 °C 5.9 °C 1024.9 hPa NE 5.6 km/h 5.0 km/h 35% 0.0 mm WeatherDisplay:10.37 W/m2 CLR
13:34 21.9 °C 5.3 °C 1024.9 hPa West 7.4 km/h 4.7 km/h 34% 0.0 mm WeatherDisplay:10.37 W/m2 CLR
13:39 22.0 °C 5.4 °C 1024.9 hPa WSW 7.4 km/h 5.8 km/h 34% 0.0 mm WeatherDisplay:10.37 W/m2 CLR
13:44 22.2 °C 5.6 °C 1024.9 hPa WNW 13.0 km/h 9.7 km/h 34% 0.0 mm WeatherDisplay:10.37 W/m2 CLR
13:49 21.9 °C 6.2 °C 1024.9 hPa West 6.9 km/h 5.8 km/h 36% 0.0 mm WeatherDisplay:10.37 W/m2 CLR
13:54 22.1 °C 5.5 °C 1024.9 hPa WSW 5.0 km/h 4.7 km/h 34% 0.0 mm WeatherDisplay:10.37 W/m2 CLR
13:59 22.2 °C 6.0 °C 1024.9 hPa West 14.8 km/h 12.6 km/h 35% 0.0 mm WeatherDisplay:10.37 W/m2 CLR
14:04 22.3 °C 5.7 °C 1024.9 hPa West 13.0 km/h 5.3 km/h 34% 0.0 mm WeatherDisplay:10.37 W/m2 CLR
14:09 22.5 °C 5.8 °C 1024.9 hPa WSW 11.1 km/h 7.9 km/h 34% 0.0 mm WeatherDisplay:10.37 W/m2 CLR
14:14 22.3 °C 5.7 °C 1024.9 hPa WSW 9.3 km/h 6.1 km/h 34% 0.0 mm WeatherDisplay:10.37 W/m2 CLR
14:19 22.5 °C 5.8 °C 1024.9 hPa SW 13.0 km/h 8.7 km/h 34% 0.0 mm WeatherDisplay:10.37 W/m2 CLR
14:24 22.3 °C 5.7 °C 1025.9 hPa West 9.3 km/h 8.7 km/h 34% 0.0 mm WeatherDisplay:10.37 W/m2 CLR
14:29 22.3 °C 6.1 °C 1025.9 hPa West 10.3 km/h 10.0 km/h 35% 0.0 mm WeatherDisplay:10.37 W/m2 CLR
14:34 22.4 °C 5.8 °C 1025.9 hPa West 9.7 km/h 7.2 km/h 34% 0.0 mm WeatherDisplay:10.37 W/m2 CLR
14:39 22.5 °C 5.8 °C 1024.9 hPa West 11.1 km/h 7.9 km/h 34% 0.0 mm WeatherDisplay:10.37 W/m2 CLR
14:44 22.7 °C 6.4 °C 1024.9 hPa West 9.7 km/h 7.6 km/h 35% 0.0 mm WeatherDisplay:10.37 W/m2 CLR
14:49 22.8 °C 6.1 °C 1024.9 hPa West 9.3 km/h 8.7 km/h 34% 0.0 mm WeatherDisplay:10.37 W/m2 CLR
14:54 22.9 °C 5.8 °C 1025.9 hPa West 9.3 km/h 8.7 km/h 33% 0.0 mm WeatherDisplay:10.37 W/m2 CLR
14:59 23.0 °C 5.4 °C 1025.9 hPa NW 11.1 km/h 7.2 km/h 32% 0.0 mm WeatherDisplay:10.37 W/m2 CLR
15:04 22.2 °C 5.2 °C 1025.9 hPa West 15.1 km/h 8.7 km/h 33% 0.0 mm WeatherDisplay:10.37 W/m2 CLR
15:09 21.7 °C 5.2 °C 1024.9 hPa West 11.1 km/h 7.2 km/h 34% 0.0 mm WeatherDisplay:10.37 W/m2 CLR
15:14 21.2 °C 4.7 °C 1024.9 hPa West 13.0 km/h 7.2 km/h 34% 0.0 mm WeatherDisplay:10.37 W/m2 CLR
15:19 21.2 °C 4.7 °C 1024.9 hPa West 9.5 km/h 7.6 km/h 34% 0.0 mm WeatherDisplay:10.37 W/m2 CLR
15:24 21.2 °C 5.1 °C 1025.9 hPa West 11.1 km/h 9.0 km/h 35% 0.0 mm WeatherDisplay:10.37 W/m2 CLR
15:29 21.7 °C 5.2 °C 1025.9 hPa West 9.3 km/h 9.0 km/h 34% 0.0 mm WeatherDisplay:10.37 W/m2 CLR
Sääasema nurmiin, Utti
Page generated in 2.32 seconds.